Time;durP1;ratioP1;P1;durP2;ratioP2;P2;SDS_P1;SDS_P2;PMS_P1;PMS_P2;Temp;Humidity;BMP_temperature;BMP_pressure;BME280_temperature;BME280_humidity;BME280_pressure;Samples;Min_cycle;Max_cycle;Signal;HPM_P1;HPM_P2
2024/01/31 00:01:35;;;;;;;27.25;10.40;;;;;;;-147.95;100.00;58458.38;4955791;28;20556;-84
2024/01/31 00:04:04;;;;;;;23.27;9.73;;;;;;;-147.95;100.00;58458.38;4955571;28;20150;-84
2024/01/31 00:06:30;;;;;;;29.48;10.85;;;;;;;-147.95;100.00;58458.38;4940420;28;20507;-84
2024/01/31 00:08:56;;;;;;;25.38;11.30;;;;;;;-147.95;100.00;58458.38;4972484;28;20045;-84
2024/01/31 00:11:25;;;;;;;28.63;11.60;;;;;;;-147.95;100.00;58458.38;4971065;28;20046;-84
2024/01/31 00:13:51;;;;;;;26.05;11.27;;;;;;;-147.95;100.00;58458.38;4936984;28;20026;-83
2024/01/31 00:16:16;;;;;;;26.23;11.98;;;;;;;-147.95;100.00;58458.38;4956293;28;20031;-83
2024/01/31 00:18:42;;;;;;;27.83;10.77;;;;;;;-147.95;100.00;58458.38;4954823;28;20825;-83
2024/01/31 00:21:08;;;;;;;19.48;9.80;;;;;;;-147.95;100.00;58458.38;4953805;28;20307;-84
2024/01/31 00:23:34;;;;;;;21.98;9.20;;;;;;;-147.95;100.00;58458.38;4938113;28;20046;-84
2024/01/31 00:25:59;;;;;;;17.70;8.35;;;;;;;-147.95;100.00;58458.38;4939938;28;20035;-83
2024/01/31 00:28:27;;;;;;;23.13;8.02;;;;;;;-147.95;100.00;58458.38;4952528;28;20042;-83
2024/01/31 00:30:52;;;;;;;19.58;7.70;;;;;;;-147.95;100.00;58458.38;4956353;28;20480;-83
2024/01/31 00:33:18;;;;;;;27.10;8.10;;;;;;;-147.95;100.00;58458.38;4954374;28;20122;-83
2024/01/31 00:35:43;;;;;;;21.60;8.30;;;;;;;-147.95;100.00;58458.38;4954349;28;20043;-83
2024/01/31 00:38:09;;;;;;;19.48;8.10;;;;;;;-147.95;100.00;58458.38;4954615;28;20030;-83
2024/01/31 00:40:34;;;;;;;21.92;8.13;;;;;;;-147.95;100.00;58458.38;4941209;28;20456;-83
2024/01/31 00:43:00;;;;;;;24.38;7.85;;;;;;;-147.95;100.00;58458.38;4956024;28;20031;-83
2024/01/31 00:45:26;;;;;;;25.08;8.20;;;;;;;-147.95;100.00;58458.38;4956257;28;20489;-84
2024/01/31 00:47:52;;;;;;;22.35;7.90;;;;;;;-147.95;100.00;58458.38;4971924;28;20496;-83
2024/01/31 00:50:17;;;;;;;23.52;8.77;;;;;;;-147.95;100.00;58458.38;4940310;28;20306;-82
2024/01/31 00:52:44;;;;;;;31.27;8.68;;;;;;;-147.95;100.00;58458.38;4971186;28;20110;-83
2024/01/31 00:55:10;;;;;;;22.23;8.40;;;;;;;-147.95;100.00;58458.38;4943107;28;20034;-83
2024/01/31 00:57:36;;;;;;;24.08;7.88;;;;;;;-147.95;100.00;58458.38;4988098;28;20015;-87
2024/01/31 01:00:08;;;;;;;22.88;7.15;;;;;;;-147.95;100.00;58458.38;4996139;28;20045;-86
2024/01/31 01:02:36;;;;;;;16.63;7.53;;;;;;;-147.95;100.00;58458.38;4975386;28;20049;-87
2024/01/31 01:05:03;;;;;;;27.20;8.05;;;;;;;-147.95;100.00;58458.38;4962571;28;20397;-86
2024/01/31 01:07:28;;;;;;;20.45;7.20;;;;;;;-147.95;100.00;58458.38;4946304;29;20106;-87
2024/01/31 01:09:53;;;;;;;20.48;7.18;;;;;;;-147.95;100.00;58458.38;4967699;28;20066;-87
2024/01/31 01:12:19;;;;;;;18.73;7.40;;;;;;;-147.95;100.00;58458.38;4975890;28;20031;-86
2024/01/31 01:14:45;;;;;;;19.77;6.82;;;;;;;-147.95;100.00;58458.38;4942502;28;20035;-86
2024/01/31 01:17:10;;;;;;;19.38;6.95;;;;;;;-147.95;100.00;58458.38;4977377;28;20034;-86
2024/01/31 01:19:37;;;;;;;21.25;6.55;;;;;;;-147.95;100.00;58458.38;4959086;28;20105;-86
2024/01/31 01:22:04;;;;;;;18.70;6.47;;;;;;;-147.95;100.00;58458.38;4959571;28;20029;-86
2024/01/31 01:24:29;;;;;;;25.95;7.38;;;;;;;-147.95;100.00;58458.38;4961161;28;20125;-87
2024/01/31 01:26:55;;;;;;;24.33;6.90;;;;;;;-147.95;100.00;58458.38;4992425;28;20121;-87
2024/01/31 01:29:20;;;;;;;20.65;7.75;;;;;;;-147.95;100.00;58458.38;4944718;28;20038;-87
2024/01/31 01:31:46;;;;;;;21.20;6.53;;;;;;;-147.95;100.00;58458.38;4945031;28;22531;-87
2024/01/31 01:34:11;;;;;;;16.45;6.20;;;;;;;-147.95;100.00;58458.38;4976119;28;20030;-87
2024/01/31 01:36:37;;;;;;;22.15;6.82;;;;;;;-147.95;100.00;58458.38;4982412;28;20031;-88
2024/01/31 01:39:03;;;;;;;24.10;6.53;;;;;;;-147.95;100.00;58458.38;4975691;28;20397;-88
2024/01/31 01:41:30;;;;;;;18.83;5.80;;;;;;;-147.95;100.00;58458.38;4953428;28;20073;-88
2024/01/31 01:43:55;;;;;;;14.23;4.75;;;;;;;-147.95;100.00;58458.38;4974645;28;20026;-88
2024/01/31 01:46:22;;;;;;;16.25;4.75;;;;;;;-147.95;100.00;58458.38;4943508;28;20030;-87
2024/01/31 01:48:49;;;;;;;12.35;3.70;;;;;;;-147.95;100.00;58458.38;4980624;28;20030;-87
2024/01/31 01:51:20;;;;;;;7.95;2.88;;;;;;;-147.95;100.00;58458.38;4974322;28;20034;-88
2024/01/31 01:53:46;;;;;;;22.30;3.22;;;;;;;-147.95;100.00;58458.38;4955918;28;20027;-88
2024/01/31 01:56:14;;;;;;;12.52;3.03;;;;;;;-147.95;100.00;58458.38;4960076;28;20114;-88
2024/01/31 01:58:41;;;;;;;12.80;4.18;;;;;;;-147.95;100.00;58458.38;4984898;28;20108;-89
2024/01/31 02:01:07;;;;;;;14.68;3.42;;;;;;;-147.95;100.00;58458.38;4959941;28;20053;-88
2024/01/31 02:03:34;;;;;;;9.45;2.58;;;;;;;-147.95;100.00;58458.38;4958478;28;20030;-88
2024/01/31 02:06:00;;;;;;;12.88;3.05;;;;;;;-147.95;100.00;58458.38;4973051;28;20120;-85
2024/01/31 02:08:29;;;;;;;12.85;3.38;;;;;;;-147.95;100.00;58458.38;4957540;28;20114;-85
2024/01/31 02:10:56;;;;;;;12.63;3.85;;;;;;;-147.95;100.00;58458.38;4959157;28;20046;-85
2024/01/31 02:13:23;;;;;;;9.65;2.85;;;;;;;-147.95;100.00;58458.38;4959919;28;20081;-85
2024/01/31 02:15:55;;;;;;;18.00;3.30;;;;;;;-147.95;100.00;58458.38;4940824;28;20035;-85
2024/01/31 02:18:21;;;;;;;7.77;2.80;;;;;;;-147.95;100.00;58458.38;4970058;28;20039;-84
2024/01/31 02:20:47;;;;;;;10.82;3.72;;;;;;;-147.95;100.00;58458.38;4973675;28;20050;-84
2024/01/31 02:23:13;;;;;;;9.00;3.25;;;;;;;-147.95;100.00;58458.38;4954995;28;20509;-85
2024/01/31 02:25:38;;;;;;;8.05;3.15;;;;;;;-147.95;100.00;58458.38;4968886;28;20503;-84
2024/01/31 02:28:05;;;;;;;11.00;3.97;;;;;;;-147.95;100.00;58458.38;4956992;28;20034;-85
2024/01/31 02:30:31;;;;;;;7.53;3.40;;;;;;;-147.95;100.00;58458.38;4940122;28;20126;-84
2024/01/31 02:32:56;;;;;;;17.90;3.63;;;;;;;-147.95;100.00;58458.38;4972363;28;20026;-85
2024/01/31 02:35:23;;;;;;;11.00;3.53;;;;;;;-147.95;100.00;58458.38;4940904;28;20026;-84
2024/01/31 02:37:50;;;;;;;15.43;3.47;;;;;;;-147.95;100.00;58458.38;4971481;28;20042;-85
2024/01/31 02:40:16;;;;;;;8.13;3.28;;;;;;;-147.95;100.00;58458.38;4955252;28;20031;-85
2024/01/31 02:42:42;;;;;;;8.30;3.15;;;;;;;-147.95;100.00;58458.38;4969142;28;20026;-84
2024/01/31 02:45:08;;;;;;;15.88;3.65;;;;;;;-147.95;100.00;58458.38;4950421;28;20031;-84
2024/01/31 02:47:33;;;;;;;10.20;3.70;;;;;;;-147.95;100.00;58458.38;4988199;28;20104;-84
2024/01/31 02:50:03;;;;;;;11.95;2.65;;;;;;;-147.95;100.00;58458.38;4954386;28;20113;-85
2024/01/31 02:52:29;;;;;;;10.77;3.05;;;;;;;-147.95;100.00;58458.38;4954150;28;20121;-84
2024/01/31 02:54:54;;;;;;;15.27;3.40;;;;;;;-147.95;100.00;58458.38;4955716;28;20165;-84
2024/01/31 02:57:20;;;;;;;9.55;2.47;;;;;;;-147.95;100.00;58458.38;4955049;28;20080;-84
2024/01/31 02:59:45;;;;;;;9.48;2.90;;;;;;;-147.95;100.00;58458.38;4943616;28;20698;-84
2024/01/31 03:02:14;;;;;;;8.50;2.58;;;;;;;-147.95;100.00;58458.38;4940163;28;20027;-84
2024/01/31 03:04:40;;;;;;;16.13;2.90;;;;;;;-147.95;100.00;58458.38;4973154;28;20058;-85
2024/01/31 03:07:05;;;;;;;10.70;2.90;;;;;;;-147.95;100.00;58458.38;4940663;28;20061;-85
2024/01/31 03:09:31;;;;;;;10.25;2.75;;;;;;;-147.95;100.00;58458.38;4954536;28;20479;-84
2024/01/31 03:11:57;;;;;;;10.05;3.47;;;;;;;-147.95;100.00;58458.38;4938281;28;20105;-84
2024/01/31 03:14:25;;;;;;;7.00;2.75;;;;;;;-147.95;100.00;58458.38;4937185;28;20030;-84
2024/01/31 03:16:50;;;;;;;9.88;2.92;;;;;;;-147.95;100.00;58458.38;4952862;28;20042;-87
2024/01/31 03:19:16;;;;;;;11.05;2.97;;;;;;;-147.95;100.00;58458.38;4955145;28;20396;-88
2024/01/31 03:21:41;;;;;;;14.02;3.35;;;;;;;-147.95;100.00;58458.38;4940607;28;20041;-87
2024/01/31 03:24:07;;;;;;;7.03;2.53;;;;;;;-147.95;100.00;58458.38;4967661;28;20078;-89
2024/01/31 03:26:32;;;;;;;9.07;2.63;;;;;;;-147.95;100.00;58458.38;4942349;28;20049;-87
2024/01/31 03:29:01;;;;;;;12.18;2.88;;;;;;;-147.95;100.00;58458.38;4956535;28;20042;-88
2024/01/31 03:31:27;;;;;;;14.32;2.65;;;;;;;-147.95;100.00;58458.38;4956859;28;20481;-88
2024/01/31 03:33:52;;;;;;;11.77;3.22;;;;;;;-147.95;100.00;58458.38;4972282;28;20037;-88
2024/01/31 03:36:18;;;;;;;13.95;3.00;;;;;;;-147.95;100.00;58458.38;4953967;28;20041;-88
2024/01/31 03:38:43;;;;;;;13.05;2.92;;;;;;;-147.95;100.00;58458.38;4938467;28;20027;-89
2024/01/31 03:41:09;;;;;;;11.57;2.50;;;;;;;-147.95;100.00;58458.38;4940780;28;20397;-88
2024/01/31 03:43:35;;;;;;;11.35;2.53;;;;;;;-147.95;100.00;58458.38;4948937;28;20034;-89
2024/01/31 03:46:04;;;;;;;11.55;2.63;;;;;;;-147.95;100.00;58458.38;4968105;28;20550;-88
2024/01/31 03:48:30;;;;;;;12.80;2.90;;;;;;;-147.95;100.00;58458.38;4950076;28;20034;-88
2024/01/31 03:50:58;;;;;;;12.43;2.60;;;;;;;-147.95;100.00;58458.38;4948128;28;20039;-88
2024/01/31 03:53:27;;;;;;;9.73;2.95;;;;;;;-147.95;100.00;58458.38;4955807;28;20481;-88
2024/01/31 03:55:52;;;;;;;13.88;3.00;;;;;;;-147.95;100.00;58458.38;4970012;28;20504;-88
2024/01/31 03:58:17;;;;;;;8.40;2.72;;;;;;;-147.95;100.00;58458.38;4960174;28;20042;-88
2024/01/31 04:00:45;;;;;;;5.72;2.55;;;;;;;-147.95;100.00;58458.38;4957203;28;20475;-87
2024/01/31 04:03:11;;;;;;;11.52;3.20;;;;;;;-147.95;100.00;58458.38;4968852;28;20037;-88
2024/01/31 04:05:38;;;;;;;14.10;2.92;;;;;;;-147.95;100.00;58458.38;4948800;29;20047;-88
2024/01/31 04:08:04;;;;;;;12.02;3.53;;;;;;;-147.95;100.00;58458.38;4945469;28;20039;-88
2024/01/31 04:10:30;;;;;;;12.80;2.65;;;;;;;-147.95;100.00;58458.38;5003564;28;20069;-89
2024/01/31 04:12:55;;;;;;;8.90;2.70;;;;;;;-147.95;100.00;58458.38;4984821;28;20109;-89
2024/01/31 04:15:22;;;;;;;15.55;3.40;;;;;;;-147.95;100.00;58458.38;4961137;28;20117;-88
2024/01/31 04:17:47;;;;;;;11.20;2.90;;;;;;;-147.95;100.00;58458.38;4958191;28;20031;-88
2024/01/31 04:20:13;;;;;;;11.35;2.63;;;;;;;-147.95;100.00;58458.38;4961710;28;20433;-88
2024/01/31 04:22:39;;;;;;;10.52;2.95;;;;;;;-147.95;100.00;58458.38;4978908;28;20041;-87
2024/01/31 04:25:05;;;;;;;5.00;2.65;;;;;;;-147.95;100.00;58458.38;4993819;28;20484;-88
2024/01/31 04:27:30;;;;;;;9.45;2.63;;;;;;;-147.95;100.00;58458.38;4956164;28;20101;-88
2024/01/31 04:29:56;;;;;;;12.40;2.65;;;;;;;-147.95;100.00;58458.38;4950602;28;20035;-88
2024/01/31 04:32:24;;;;;;;11.18;3.20;;;;;;;-147.95;100.00;58458.38;4947385;28;20446;-88
2024/01/31 04:34:51;;;;;;;4.50;2.25;;;;;;;-147.95;100.00;58458.38;4949630;28;20030;-88
2024/01/31 04:37:16;;;;;;;19.55;2.85;;;;;;;-147.95;100.00;58458.38;4995301;28;20098;-88
2024/01/31 04:39:43;;;;;;;7.75;3.00;;;;;;;-147.95;100.00;58458.38;4946984;28;20050;-88
2024/01/31 04:42:09;;;;;;;12.82;2.53;;;;;;;-147.95;100.00;58458.38;4955398;28;20026;-88
2024/01/31 04:44:35;;;;;;;11.30;3.03;;;;;;;-147.95;100.00;58458.38;4968785;28;20133;-87
2024/01/31 04:47:00;;;;;;;8.00;2.30;;;;;;;-147.95;100.00;58458.38;4954564;28;20045;-88
2024/01/31 04:49:26;;;;;;;11.70;2.70;;;;;;;-147.95;100.00;58458.38;4954619;28;20030;-87
2024/01/31 04:51:53;;;;;;;11.30;2.58;;;;;;;-147.95;100.00;58458.38;4977827;28;20036;-87
2024/01/31 04:54:19;;;;;;;8.23;2.67;;;;;;;-147.95;100.00;58458.38;4958491;28;20528;-88
2024/01/31 04:56:45;;;;;;;13.57;3.47;;;;;;;-147.95;100.00;58458.38;4962107;28;20034;-89
2024/01/31 04:59:12;;;;;;;12.07;3.50;;;;;;;-147.95;100.00;58458.38;4944892;28;20034;-88
2024/01/31 05:01:38;;;;;;;8.88;2.90;;;;;;;-147.95;100.00;58458.38;4944164;28;20535;-88
2024/01/31 05:04:03;;;;;;;9.93;3.00;;;;;;;-147.95;100.00;58458.38;4938940;28;20030;-89
2024/01/31 05:06:29;;;;;;;11.45;3.00;;;;;;;-147.95;100.00;58458.38;4961288;28;20463;-88
2024/01/31 05:08:54;;;;;;;10.43;3.00;;;;;;;-147.95;100.00;58458.38;4958947;28;20037;-89
2024/01/31 05:11:20;;;;;;;8.60;2.75;;;;;;;-147.95;100.00;58458.38;4946718;28;20635;-89
2024/01/31 05:13:45;;;;;;;8.45;3.00;;;;;;;-147.95;100.00;58458.38;4962240;28;20045;-89
2024/01/31 05:16:10;;;;;;;13.27;3.40;;;;;;;-147.95;100.00;58458.38;4946514;28;20093;-88
2024/01/31 05:18:36;;;;;;;6.60;2.75;;;;;;;-147.95;100.00;58458.38;4940353;28;20772;-90
2024/01/31 05:21:02;;;;;;;7.20;2.72;;;;;;;-147.95;100.00;58458.38;4975203;28;20079;-89
2024/01/31 05:23:28;;;;;;;11.95;2.88;;;;;;;-147.95;100.00;58458.38;4977400;28;20030;-89
2024/01/31 05:25:53;;;;;;;13.23;3.00;;;;;;;-147.95;100.00;58458.38;4955774;28;20030;-88
2024/01/31 05:28:19;;;;;;;8.02;3.00;;;;;;;-147.95;100.00;58458.38;4975360;28;20492;-91
2024/01/31 05:30:46;;;;;;;6.15;2.47;;;;;;;-147.95;100.00;58458.38;4959356;28;20389;-92
2024/01/31 05:33:12;;;;;;;15.80;3.30;;;;;;;-147.95;100.00;58458.38;4976184;28;20026;-91
2024/01/31 05:35:38;;;;;;;7.75;2.85;;;;;;;-147.95;100.00;58458.38;4963792;28;20029;-92
2024/01/31 05:38:05;;;;;;;8.38;2.88;;;;;;;-147.95;100.00;58458.38;4992630;28;20030;-83
2024/01/31 05:40:31;;;;;;;16.55;3.15;;;;;;;-147.95;100.00;58458.38;4975026;28;20072;-84
2024/01/31 05:42:57;;;;;;;18.08;4.50;;;;;;;-147.95;100.00;58458.38;4975097;28;20026;-83
2024/01/31 05:45:24;;;;;;;6.90;2.50;;;;;;;-147.95;100.00;58458.38;4960063;28;20658;-83
2024/01/31 05:47:50;;;;;;;12.68;2.65;;;;;;;-147.95;100.00;58458.38;4976209;28;20034;-83
2024/01/31 05:50:16;;;;;;;8.73;2.97;;;;;;;-147.95;100.00;58458.38;4958104;28;20064;-84
2024/01/31 05:52:42;;;;;;;10.90;4.32;;;;;;;-147.95;100.00;58458.38;4938801;28;20065;-84
2024/01/31 05:55:07;;;;;;;9.23;3.00;;;;;;;-147.95;100.00;58458.38;4973081;28;20457;-83
2024/01/31 05:57:33;;;;;;;17.27;3.60;;;;;;;-147.95;100.00;58458.38;4970086;28;20045;-83
2024/01/31 05:59:59;;;;;;;18.10;3.45;;;;;;;-147.95;100.00;58458.38;4991425;28;20033;-84
2024/01/31 06:02:25;;;;;;;9.90;3.10;;;;;;;-147.95;100.00;58458.38;4973507;28;20034;-83
2024/01/31 06:04:52;;;;;;;8.93;2.75;;;;;;;-147.95;100.00;58458.38;4991096;28;20050;-83
2024/01/31 06:07:18;;;;;;;12.60;3.85;;;;;;;-147.95;100.00;58458.38;4972478;28;20030;-84
2024/01/31 06:09:43;;;;;;;15.68;3.60;;;;;;;-147.95;100.00;58458.38;4971969;28;20038;-85
2024/01/31 06:12:09;;;;;;;12.80;3.08;;;;;;;-147.95;100.00;58458.38;4957522;28;20042;-83
2024/01/31 06:14:36;;;;;;;11.07;4.13;;;;;;;-147.95;100.00;58458.38;4956790;28;20081;-84
2024/01/31 06:17:02;;;;;;;13.02;4.45;;;;;;;-147.95;100.00;58458.38;4973461;28;21154;-83
2024/01/31 06:19:29;;;;;;;12.55;4.70;;;;;;;-147.95;100.00;58458.38;4960833;28;20037;-84
2024/01/31 06:21:56;;;;;;;10.35;4.07;;;;;;;-147.95;100.00;58458.38;4956157;28;20026;-84
2024/01/31 06:24:23;;;;;;;15.70;4.43;;;;;;;-147.95;100.00;58458.38;4973573;28;20026;-83
2024/01/31 06:26:48;;;;;;;17.85;4.40;;;;;;;-147.95;100.00;58458.38;4956712;28;20476;-83
2024/01/31 06:29:18;;;;;;;13.52;4.57;;;;;;;-147.95;100.00;58458.38;4974372;28;20089;-83
2024/01/31 06:31:47;;;;;;;9.07;4.38;;;;;;;-147.95;100.00;58458.38;4958701;28;20416;-83
2024/01/31 06:34:16;;;;;;;13.00;4.35;;;;;;;-147.95;100.00;58458.38;4955500;28;20049;-83
2024/01/31 06:36:42;;;;;;;12.70;4.65;;;;;;;-147.95;100.00;58458.38;4989286;28;20113;-83
2024/01/31 06:39:09;;;;;;;15.45;5.30;;;;;;;-147.95;100.00;58458.38;4974196;28;20396;-83
2024/01/31 06:41:36;;;;;;;13.25;4.57;;;;;;;-147.95;100.00;58458.38;4938802;28;20515;-83
2024/01/31 06:44:02;;;;;;;14.68;4.80;;;;;;;-147.95;100.00;58458.38;4953285;28;20571;-83
2024/01/31 06:46:28;;;;;;;16.50;4.78;;;;;;;-147.95;100.00;58458.38;4990998;28;20157;-84
2024/01/31 06:48:55;;;;;;;9.75;5.07;;;;;;;-147.95;100.00;58458.38;4940216;28;20129;-83
2024/01/31 06:51:20;;;;;;;12.18;4.72;;;;;;;-147.95;100.00;58458.38;4970981;28;20042;-84
2024/01/31 06:53:47;;;;;;;14.98;5.32;;;;;;;-147.95;100.00;58458.38;4939256;28;20038;-84
2024/01/31 06:56:17;;;;;;;11.25;4.70;;;;;;;-147.95;100.00;58458.38;4970333;28;20038;-84
2024/01/31 06:58:46;;;;;;;19.67;4.45;;;;;;;-147.95;100.00;58458.38;4956512;28;20141;-84
2024/01/31 07:01:20;;;;;;;12.80;4.80;;;;;;;-147.95;100.00;58458.38;4953210;28;20041;-84
2024/01/31 07:03:47;;;;;;;15.48;5.18;;;;;;;-147.95;100.00;58458.38;4990247;28;20157;-84
2024/01/31 07:06:13;;;;;;;18.00;4.45;;;;;;;-147.95;100.00;58458.38;4972308;28;20093;-83
2024/01/31 07:08:40;;;;;;;15.60;4.47;;;;;;;-147.95;100.00;58458.38;4957043;28;20038;-84
2024/01/31 07:11:11;;;;;;;13.18;4.80;;;;;;;-147.95;100.00;58458.38;4956999;28;20147;-84
2024/01/31 07:13:38;;;;;;;13.52;5.93;;;;;;;-147.95;100.00;58458.38;4938433;28;20100;-84
2024/01/31 07:16:09;;;;;;;16.23;5.22;;;;;;;-147.95;100.00;58458.38;4986870;28;20580;-84
2024/01/31 07:18:39;;;;;;;16.25;5.25;;;;;;;-147.95;100.00;58458.38;4955090;28;20144;-84
2024/01/31 07:21:05;;;;;;;17.13;5.30;;;;;;;-147.95;100.00;58458.38;4972721;28;20035;-84
2024/01/31 07:23:31;;;;;;;18.10;5.57;;;;;;;-147.95;100.00;58458.38;4967789;28;20037;-84
2024/01/31 07:25:57;;;;;;;9.80;4.75;;;;;;;-147.95;100.00;58458.38;4954615;28;20045;-84
2024/01/31 07:28:24;;;;;;;13.30;5.35;;;;;;;-147.95;100.00;58458.38;4974667;28;20058;-83
2024/01/31 07:30:52;;;;;;;13.38;5.47;;;;;;;-147.95;100.00;58458.38;4970480;28;20035;-83
2024/01/31 07:33:17;;;;;;;15.05;5.72;;;;;;;-147.95;100.00;58458.38;4943042;28;20041;-83
2024/01/31 07:35:43;;;;;;;16.92;5.57;;;;;;;-147.95;100.00;58458.38;4960509;28;20039;-83
2024/01/31 07:38:09;;;;;;;17.83;6.03;;;;;;;-147.95;100.00;58458.38;4957897;28;20042;-87
2024/01/31 07:40:34;;;;;;;22.00;6.20;;;;;;;-147.95;100.00;58458.38;4957461;28;20034;-83
2024/01/31 07:43:00;;;;;;;18.95;6.80;;;;;;;-147.95;100.00;58458.38;4938152;28;20023;-83
2024/01/31 07:45:27;;;;;;;28.27;7.63;;;;;;;-147.95;100.00;58458.38;4958419;28;20451;-86
2024/01/31 07:47:53;;;;;;;25.30;7.75;;;;;;;-147.95;100.00;58458.38;4974760;28;20065;-85
2024/01/31 07:50:19;;;;;;;15.45;7.22;;;;;;;-147.95;100.00;58458.38;4956652;28;20030;-84
2024/01/31 07:52:52;;;;;;;24.95;7.53;;;;;;;-147.95;100.00;58458.38;4940736;28;20049;-85
2024/01/31 07:55:17;;;;;;;23.02;7.70;;;;;;;-147.95;100.00;58458.38;4959745;28;20047;-84
2024/01/31 07:57:43;;;;;;;18.23;7.97;;;;;;;-147.95;100.00;58458.38;4959604;28;20039;-84
2024/01/31 08:00:09;;;;;;;24.60;8.65;;;;;;;-147.95;100.00;58458.38;4954211;28;20065;-83
2024/01/31 08:02:35;;;;;;;25.48;9.43;;;;;;;-147.95;100.00;58458.38;4970551;28;20038;-85
2024/01/31 08:05:02;;;;;;;18.55;8.18;;;;;;;-147.95;100.00;58458.38;4959383;28;20044;-85
2024/01/31 08:07:27;;;;;;;22.80;9.20;;;;;;;-147.95;100.00;58458.38;4942901;28;20496;-84
2024/01/31 08:09:53;;;;;;;22.33;8.50;;;;;;;-147.95;100.00;58458.38;4960687;28;20042;-84
2024/01/31 08:12:18;;;;;;;23.65;9.82;;;;;;;-147.95;100.00;58458.38;4944724;28;20058;-84
2024/01/31 08:14:45;;;;;;;23.15;9.27;;;;;;;-147.95;100.00;58458.38;4957484;28;20043;-84
2024/01/31 08:17:11;;;;;;;29.50;10.10;;;;;;;-147.95;100.00;58458.38;4974181;28;20038;-85
2024/01/31 08:19:36;;;;;;;26.92;9.52;;;;;;;-147.95;100.00;58458.38;4940563;28;20050;-86
2024/01/31 08:22:03;;;;;;;25.65;10.15;;;;;;;-147.95;100.00;58458.38;4954387;28;20026;-87
2024/01/31 08:24:29;;;;;;;28.02;10.00;;;;;;;-147.95;100.00;58458.38;4989078;28;20030;-85
2024/01/31 08:26:56;;;;;;;27.73;9.43;;;;;;;-147.95;100.00;58458.38;4968910;28;20022;-86
2024/01/31 08:29:24;;;;;;;27.95;9.82;;;;;;;-147.95;100.00;58458.38;4958754;28;20074;-85
2024/01/31 08:31:49;;;;;;;24.02;10.35;;;;;;;-147.95;100.00;58458.38;4960398;28;20079;-87
2024/01/31 08:34:15;;;;;;;28.75;10.10;;;;;;;-147.95;100.00;58458.38;4959972;28;20042;-85
2024/01/31 08:36:41;;;;;;;28.08;10.15;;;;;;;-147.95;100.00;58458.38;4944467;28;20113;-86
2024/01/31 08:39:08;;;;;;;25.98;9.77;;;;;;;-147.95;100.00;58458.38;4958613;28;20105;-86
2024/01/31 08:41:34;;;;;;;23.73;9.48;;;;;;;-147.95;100.00;58458.38;4964669;28;20488;-85
2024/01/31 08:43:59;;;;;;;26.50;9.93;;;;;;;-147.95;100.00;58458.38;4944703;28;20030;-86
2024/01/31 08:46:26;;;;;;;24.20;10.27;;;;;;;-147.95;100.00;58458.38;4959600;28;20074;-86
2024/01/31 08:48:52;;;;;;;28.35;9.63;;;;;;;-147.95;100.00;58458.38;4943437;28;20035;-86
2024/01/31 08:51:18;;;;;;;27.08;9.13;;;;;;;-147.95;100.00;58458.38;4941221;28;20041;-86
2024/01/31 08:53:44;;;;;;;24.60;9.65;;;;;;;-147.95;100.00;58458.38;4975782;28;20030;-87
2024/01/31 08:56:11;;;;;;;29.95;10.25;;;;;;;-147.95;100.00;58458.38;4962722;28;20506;-86
2024/01/31 08:58:37;;;;;;;28.15;9.00;;;;;;;-147.95;100.00;58458.38;4976246;28;20034;-87
2024/01/31 09:01:03;;;;;;;30.27;10.10;;;;;;;-147.95;100.00;58458.38;4943868;28;20591;-88
2024/01/31 09:03:29;;;;;;;24.35;9.57;;;;;;;-147.95;100.00;58458.38;4955128;28;20488;-87
2024/01/31 09:05:54;;;;;;;23.30;10.35;;;;;;;-147.95;100.00;58458.38;4945738;28;20041;-96
2024/01/31 09:08:20;;;;;;;22.92;9.90;;;;;;;-147.95;100.00;58458.38;4944202;28;20085;-86
2024/01/31 09:10:46;;;;;;;25.60;9.13;;;;;;;-147.95;100.00;58458.38;4943790;28;20465;-86
2024/01/31 09:13:12;;;;;;;27.95;10.10;;;;;;;-147.95;100.00;58458.38;4956854;28;20541;-87
2024/01/31 09:15:37;;;;;;;28.80;10.32;;;;;;;-147.95;100.00;58458.38;4964025;28;20572;-86
2024/01/31 09:18:03;;;;;;;27.67;10.85;;;;;;;-147.95;100.00;58458.38;4942789;28;20070;-86
2024/01/31 09:20:30;;;;;;;30.67;10.75;;;;;;;-147.95;100.00;58458.38;4947372;28;20037;-88
2024/01/31 09:22:56;;;;;;;34.30;12.35;;;;;;;-147.95;100.00;58458.38;4966683;28;20026;-86
2024/01/31 09:25:21;;;;;;;30.23;11.23;;;;;;;-147.95;100.00;58458.38;4941430;28;20089;-86
2024/01/31 09:27:47;;;;;;;27.35;10.35;;;;;;;-147.95;100.00;58458.38;4955244;28;20050;-86
2024/01/31 09:30:12;;;;;;;29.88;11.23;;;;;;;-147.95;100.00;58458.38;4988095;28;20026;-85
2024/01/31 09:32:39;;;;;;;24.33;10.38;;;;;;;-147.95;100.00;58458.38;4971257;28;20041;-85
2024/01/31 09:35:05;;;;;;;35.42;12.02;;;;;;;-147.95;100.00;58458.38;4951945;28;20034;-86
2024/01/31 09:37:32;;;;;;;25.88;10.60;;;;;;;-147.95;100.00;58458.38;4966982;28;20090;-85
2024/01/31 09:40:01;;;;;;;28.55;11.93;;;;;;;-147.95;100.00;58458.38;4952632;28;20062;-85
2024/01/31 09:42:27;;;;;;;30.98;12.52;;;;;;;-147.95;100.00;58458.38;4954489;28;20042;-86
2024/01/31 09:44:55;;;;;;;37.25;12.95;;;;;;;-147.95;100.00;58458.38;4968128;28;20855;-86
2024/01/31 09:47:28;;;;;;;30.25;13.38;;;;;;;-147.95;100.00;58458.38;4966534;28;20547;-87
2024/01/31 09:49:55;;;;;;;42.42;15.80;;;;;;;-147.95;100.00;58458.38;4969591;28;20022;-87
2024/01/31 09:52:27;;;;;;;35.15;14.13;;;;;;;-147.95;100.00;58458.38;4955549;28;20037;-87
2024/01/31 09:54:57;;;;;;;36.00;15.77;;;;;;;-147.95;100.00;58458.38;4954307;28;20062;-84
2024/01/31 09:57:24;;;;;;;42.55;17.40;;;;;;;-147.95;100.00;58458.38;4987001;28;20038;-84
2024/01/31 09:59:50;;;;;;;49.55;16.98;;;;;;;-147.95;100.00;58458.38;4969112;28;20046;-84
2024/01/31 10:02:16;;;;;;;43.60;18.25;;;;;;;-147.95;100.00;58458.38;4952425;28;20034;-85
2024/01/31 10:04:46;;;;;;;43.28;17.90;;;;;;;-147.95;100.00;58458.38;4957965;28;20026;-87
2024/01/31 10:07:21;;;;;;;35.20;16.95;;;;;;;-147.95;100.00;58458.38;4971606;28;20157;-85
2024/01/31 10:09:48;;;;;;;46.95;18.75;;;;;;;-147.95;100.00;58458.38;4967013;28;20520;-84
2024/01/31 10:12:14;;;;;;;44.53;18.00;;;;;;;-147.95;100.00;58458.38;4970290;28;20058;-84
2024/01/31 10:14:41;;;;;;;46.38;18.48;;;;;;;-147.95;100.00;58458.38;4940967;28;20110;-84
2024/01/31 10:17:07;;;;;;;39.45;18.27;;;;;;;-147.95;100.00;58458.38;4965827;28;20507;-92
2024/01/31 10:19:32;;;;;;;34.72;18.40;;;;;;;-147.95;100.00;58458.38;4952807;28;20042;-91
2024/01/31 10:21:57;;;;;;;39.20;18.38;;;;;;;-147.95;100.00;58458.38;4956198;28;20395;-91
2024/01/31 10:24:24;;;;;;;42.90;18.67;;;;;;;-147.95;100.00;58458.38;4945344;28;20034;-94
2024/01/31 10:26:50;;;;;;;40.88;19.38;;;;;;;-147.95;100.00;58458.38;4975681;28;20047;-94
2024/01/31 10:29:18;;;;;;;39.75;19.67;;;;;;;-147.95;100.00;58458.38;4943530;28;20061;-94
2024/01/31 10:31:46;;;;;;;43.83;20.20;;;;;;;-147.95;100.00;58458.38;4978596;28;20030;-94
2024/01/31 10:34:13;;;;;;;47.67;18.45;;;;;;;-147.95;100.00;58458.38;4990900;28;20027;-94
2024/01/31 10:36:42;;;;;;;33.33;15.95;;;;;;;-147.95;100.00;58458.38;5014952;28;20018;-93
2024/01/31 10:39:11;;;;;;;29.55;15.10;;;;;;;-147.95;100.00;58458.38;5000729;28;20117;-92
2024/01/31 10:41:42;;;;;;;31.52;16.42;;;;;;;-147.95;100.00;58458.38;4999833;28;20006;-92
2024/01/31 10:44:10;;;;;;;27.30;14.68;;;;;;;-147.95;100.00;58458.38;4981969;28;20037;-93
2024/01/31 10:46:37;;;;;;;26.40;15.27;;;;;;;-147.95;100.00;58458.38;4972589;28;20370;-93
2024/01/31 10:49:02;;;;;;;28.80;15.88;;;;;;;-147.95;100.00;58458.38;4952236;28;20047;-91
2024/01/31 10:51:31;;;;;;;26.55;13.57;;;;;;;-147.95;100.00;58458.38;4979574;28;20045;-93
2024/01/31 10:53:57;;;;;;;21.75;12.02;;;;;;;-147.95;100.00;58458.38;4962752;28;20039;-92
2024/01/31 10:56:26;;;;;;;15.95;9.63;;;;;;;-147.95;100.00;58458.38;4979419;28;20125;-94
2024/01/31 10:58:51;;;;;;;19.38;9.88;;;;;;;-147.95;100.00;58458.38;4947062;28;20488;-93